Search for airport 
image banner adimage banner adimage banner ad
image banner ad

KEKO - Elko Rgnl

Located in Elko, United States

ICAO - EKO, IATA - EKO

Data provided by Airmate  

General information

Coordinates: N40°49'30" W115°47'29"
Elevation is 5140 feet MSL.
Magnetic variation is 12° East
View others Airports in Nevada

Operational data

Special qualification required
Current time UTC:
Current local time:
Weather
METAR: KEKO 092156Z AUTO 31011G17KT 10SM SCT065 BKN090 16/M06 A3000 RMK AO2 PK WND 29033/2132 SLP146 T01561061
TAF: KEKO 091721Z 0918/1018 00000KT P6SM SCT180 BKN200 FM092100 34008KT P6SM BKN070 BKN180 FM100000 01010G18KT P6SM SCT080 SCT120 BKN180 FM100300 02007KT P6SM SCT090 BKN180
View NOTAMs / SUP AIP / TFR affecting this airport [VIEW]
Communications frequencies: [VIEW]

Runways:

RWY identifierQFULength (ft)Width (ft)SurfaceLDA (ft)
12134°301560ASPH2106
30314°301560ASPH2871
0669°7454150ASPH7217
24249°7454150ASPH6419

Airport contact information

Address: Elko United States

Other aviation service providers

Flight schools

Mountain West Aviation / El Aero Services

Mountain West Aviation / El Aero Services

Satellite view of KEKO